createdAt,value
2023-05-20T00:00:49.111Z,99411.53
2023-05-20T00:03:16.958Z,99409.72
2023-05-20T00:05:44.015Z,99407.06
2023-05-20T00:08:11.219Z,99399.13
2023-05-20T00:10:38.328Z,99404.41
2023-05-20T00:13:06.490Z,99399.13
2023-05-20T00:15:34.675Z,99402.72
2023-05-20T00:18:02.658Z,99380.31
2023-05-20T00:20:29.591Z,99392.97
2023-05-20T00:22:56.314Z,99396.56
2023-05-20T00:25:22.986Z,99393.91
2023-05-20T00:27:49.547Z,99399.22
2023-05-20T00:30:16.393Z,99393.91
2023-05-20T00:32:42.989Z,99389.56
2023-05-20T00:35:11.382Z,99389.56
2023-05-20T00:37:37.933Z,99384.66
2023-05-20T00:40:05.669Z,99388.81
2023-05-20T00:42:32.257Z,99389.56
2023-05-20T00:45:00.728Z,99382.66
2023-05-20T00:47:30.531Z,99382.56
2023-05-20T00:49:57.722Z,99385.19
2023-05-20T00:52:25.612Z,99385.19
2023-05-20T00:54:52.637Z,99378.13
2023-05-20T00:57:19.962Z,99375.53
2023-05-20T00:59:46.963Z,99374.59
2023-05-20T01:02:14.084Z,99375.53
2023-05-20T01:04:41.833Z,99370.25
2023-05-20T01:07:08.530Z,99365.06
2023-05-20T01:09:35.847Z,99360.63
2023-05-20T01:12:21.172Z,99358.81
2023-05-20T01:15:00.390Z,99362.28
2023-05-20T01:17:33.151Z,99362.41
2023-05-20T01:20:02.472Z,99355.41
2023-05-20T01:22:29.759Z,99359.75
2023-05-20T01:24:57.100Z,99370.34
2023-05-20T01:27:26.510Z,99360.69
2023-05-20T01:29:53.486Z,99360.63
2023-05-20T01:32:23.066Z,99355.41
2023-05-20T01:34:51.403Z,99353.63
2023-05-20T01:37:19.941Z,99358.03
2023-05-20T01:39:48.559Z,99354.44
2023-05-20T01:42:16.059Z,99331.22
2023-05-20T01:44:43.165Z,99346.50
2023-05-20T01:47:09.839Z,99349.91
2023-05-20T01:49:36.471Z,99346.38
2023-05-20T01:52:04.442Z,99345.44
2023-05-20T01:54:31.429Z,99343.72
2023-05-20T01:56:58.359Z,99351.59
2023-05-20T01:59:25.334Z,99350.00
2023-05-20T02:01:51.964Z,99357.84
2023-05-20T02:04:19.142Z,99355.22
2023-05-20T02:06:46.190Z,99358.69
2023-05-20T02:09:13.107Z,99347.56
2023-05-20T02:11:39.989Z,99360.50
2023-05-20T02:14:06.620Z,99359.63
2023-05-20T02:16:33.492Z,99362.28
2023-05-20T02:19:02.162Z,99362.28
2023-05-20T02:21:28.842Z,99359.63
2023-05-20T02:23:55.609Z,99352.03
2023-05-20T02:26:22.720Z,99364.09
2023-05-20T02:28:50.761Z,99365.06
2023-05-20T02:31:18.167Z,99365.91
2023-05-20T02:33:45.300Z,99368.56
2023-05-20T02:36:12.372Z,99368.56
2023-05-20T02:38:39.184Z,99367.69
2023-05-20T02:41:05.789Z,99368.56
2023-05-20T02:43:33.576Z,99359.88
2023-05-20T02:46:01.291Z,99360.63
2023-05-20T02:48:28.165Z,99368.56
2023-05-20T02:50:54.939Z,99362.41
2023-05-20T02:53:21.599Z,99363.28
2023-05-20T02:55:48.932Z,99353.50
2023-05-20T02:58:15.924Z,99348.81
2023-05-20T03:00:43.566Z,99331.03
2023-05-20T03:03:10.711Z,99370.25
2023-05-20T03:05:38.176Z,99368.56
2023-05-20T03:08:10.637Z,99363.28
2023-05-20T03:10:38.635Z,99372.06
2023-05-20T03:13:11.508Z,99364.09
2023-05-20T03:15:39.354Z,99372.91
2023-05-20T03:18:08.522Z,99368.56
2023-05-20T03:20:40.130Z,99375.53
2023-05-20T03:23:07.817Z,99379.91
2023-05-20T03:25:37.295Z,99363.75
2023-05-20T03:28:04.423Z,99374.72
2023-05-20T03:30:31.477Z,99373.88
2023-05-20T03:32:59.496Z,99380.00
2023-05-20T03:35:26.438Z,99362.69
2023-05-20T03:37:53.417Z,99359.50
2023-05-20T03:40:22.364Z,99354.97
2023-05-20T03:42:50.962Z,99375.53
2023-05-20T03:45:19.353Z,99365.91
2023-05-20T03:48:03.653Z,99369.41
2023-05-20T03:50:32.683Z,99372.06
2023-05-20T03:53:00.515Z,99370.34
2023-05-20T03:55:28.881Z,99377.38
2023-05-20T03:57:55.528Z,99373.75
2023-05-20T04:00:22.787Z,99363.28
2023-05-20T04:02:49.553Z,99363.28
2023-05-20T04:05:19.408Z,99365.81
2023-05-20T04:07:46.948Z,99355.09
2023-05-20T04:10:14.280Z,99365.91
2023-05-20T04:12:41.445Z,99363.28
2023-05-20T04:15:09.222Z,99369.41
2023-05-20T04:17:48.413Z,99372.06
2023-05-20T04:20:15.894Z,99369.41
2023-05-20T04:22:42.547Z,99372.06
2023-05-20T04:25:09.937Z,99373.66
2023-05-20T04:27:39.669Z,99373.75
2023-05-20T04:30:07.795Z,99353.25
2023-05-20T04:32:38.717Z,99377.25
2023-05-20T04:35:11.922Z,99370.47
2023-05-20T04:37:42.323Z,99359.31
2023-05-20T04:40:09.805Z,99365.81
2023-05-20T04:42:37.644Z,99366.66
2023-05-20T04:45:05.881Z,99366.75
2023-05-20T04:47:38.658Z,99370.16
2023-05-20T04:50:11.134Z,99364.00
2023-05-20T04:52:42.948Z,99371.94
2023-05-20T04:55:10.843Z,99374.59
2023-05-20T04:57:41.604Z,99367.59
2023-05-20T05:00:10.389Z,99378.13
2023-05-20T05:02:39.058Z,99366.00
2023-05-20T05:05:06.694Z,99372.72
2023-05-20T05:07:33.470Z,99378.84
2023-05-20T05:10:00.537Z,99377.06
2023-05-20T05:12:29.662Z,99386.81
2023-05-20T05:14:57.649Z,99355.72
2023-05-20T05:17:25.091Z,99376.41
2023-05-20T05:19:51.762Z,99380.66
2023-05-20T05:22:18.386Z,99380.66
2023-05-20T05:24:45.572Z,99378.00
2023-05-20T05:27:12.228Z,99378.84
2023-05-20T05:29:38.968Z,99378.84
2023-05-20T05:32:05.688Z,99373.88
2023-05-20T05:34:32.343Z,99380.78
2023-05-20T05:36:59.605Z,99385.97
2023-05-20T05:39:26.313Z,99390.41
2023-05-20T05:41:54.149Z,99372.34
2023-05-20T05:44:21.318Z,99372.34
2023-05-20T05:46:51.206Z,99376.41
2023-05-20T05:49:17.923Z,99384.16
2023-05-20T05:51:44.759Z,99385.84
2023-05-20T05:54:12.073Z,99360.06
2023-05-20T05:56:38.976Z,99356.84
2023-05-20T05:59:06.012Z,99368.66
2023-05-20T06:01:32.807Z,99382.25
2023-05-20T06:03:59.660Z,99374.31
2023-05-20T06:06:26.672Z,99362.63
2023-05-20T06:08:54.006Z,99365.81
2023-05-20T06:11:21.613Z,99381.31
2023-05-20T06:13:48.366Z,99377.72
2023-05-20T06:16:14.971Z,99372.50
2023-05-20T06:18:41.653Z,99372.50
2023-05-20T06:23:29.380Z,99347.84
2023-05-20T06:25:59.983Z,99377.59
2023-05-20T06:28:27.695Z,99369.84
2023-05-20T06:30:55.491Z,99367.94
2023-05-20T06:33:27.122Z,99369.53
2023-05-20T06:35:57.237Z,99374.00
2023-05-20T06:38:23.902Z,99364.75
2023-05-20T06:40:51.426Z,99366.88
2023-05-20T06:43:18.228Z,99372.00
2023-05-20T06:45:54.159Z,99376.25
2023-05-20T06:48:35.418Z,99375.28
2023-05-20T06:51:02.156Z,99376.13
2023-05-20T06:53:31.714Z,99372.53
2023-05-20T06:55:58.426Z,99370.63
2023-05-20T06:58:26.113Z,99356.63
2023-05-20T07:00:54.854Z,99361.69
2023-05-20T07:03:21.587Z,99359.91
2023-05-20T07:05:48.209Z,99351.84
2023-05-20T07:08:14.887Z,99357.03
2023-05-20T07:10:41.499Z,99355.25
2023-05-20T07:13:11.990Z,99356.00
2023-05-20T07:15:38.735Z,99349.97
2023-05-20T07:18:05.909Z,99342.72
2023-05-20T07:20:32.905Z,99336.59
2023-05-20T07:23:04.442Z,99345.28
2023-05-20T07:25:37.521Z,99343.47
2023-05-20T07:28:04.450Z,99333.75
2023-05-20T07:30:31.335Z,99334.56
2023-05-20T07:33:11.814Z,99335.53
2023-05-20T07:35:38.589Z,99341.59
2023-05-20T07:38:05.305Z,99339.03
2023-05-20T07:40:32.232Z,99331.41
2023-05-20T07:42:59.073Z,99337.13
2023-05-20T07:45:25.938Z,99316.53
2023-05-20T07:47:52.596Z,99342.41
2023-05-20T07:50:19.278Z,99342.41
2023-05-20T07:52:55.843Z,99342.31
2023-05-20T07:55:26.256Z,99320.16
2023-05-20T07:57:52.996Z,99342.22
2023-05-20T08:00:21.090Z,99336.91
2023-05-20T08:02:50.449Z,99344.88
2023-05-20T08:05:24.168Z,99342.22
2023-05-20T08:07:51.791Z,99349.22
2023-05-20T08:10:21.368Z,99342.00
2023-05-20T08:12:48.234Z,99341.88
2023-05-20T08:15:14.931Z,99328.97
2023-05-20T08:17:41.833Z,99333.84
2023-05-20T08:20:12.785Z,99336.50
2023-05-20T08:22:39.792Z,99329.38
2023-05-20T08:25:10.044Z,99323.97
2023-05-20T08:27:37.338Z,99326.59
2023-05-20T08:30:08.222Z,99322.06
2023-05-20T08:32:35.014Z,99325.59
2023-05-20T08:35:02.222Z,99326.31
2023-05-20T08:37:29.537Z,99325.47
2023-05-20T08:39:56.371Z,99325.34
2023-05-20T08:42:24.639Z,99329.72
2023-05-20T08:44:54.554Z,99314.34
2023-05-20T08:47:22.952Z,99332.25
2023-05-20T08:49:50.000Z,99326.94
2023-05-20T08:52:18.417Z,99330.38
2023-05-20T08:54:47.801Z,99326.81
2023-05-20T08:57:17.782Z,99324.97
2023-05-20T08:59:46.961Z,99322.50
2023-05-20T09:02:14.337Z,99325.78
2023-05-20T09:04:41.145Z,99325.72
2023-05-20T09:07:07.937Z,99317.19
2023-05-20T09:09:35.535Z,99308.38
2023-05-20T09:12:03.558Z,99330.06
2023-05-20T09:14:31.168Z,99322.94
2023-05-20T09:16:58.040Z,99317.75
2023-05-20T09:19:25.557Z,99327.41
2023-05-20T09:21:55.572Z,99319.47
2023-05-20T09:24:26.790Z,99322.94
2023-05-20T09:26:53.627Z,99320.19
2023-05-20T09:29:21.827Z,99319.47
2023-05-20T09:31:51.805Z,99316.69
2023-05-20T09:34:18.762Z,99319.22
2023-05-20T09:36:45.574Z,99309.88
2023-05-20T09:39:15.949Z,99306.19
2023-05-20T09:41:57.739Z,99311.25
2023-05-20T09:44:24.896Z,99319.13
2023-05-20T09:46:53.216Z,99293.41
2023-05-20T09:49:21.489Z,99310.19
2023-05-20T09:54:08.332Z,99321.69
2023-05-20T09:56:35.416Z,99308.50
2023-05-20T09:59:05.120Z,99315.38
2023-05-20T10:01:31.926Z,99293.25
2023-05-20T10:04:01.814Z,99317.22
2023-05-20T10:06:57.799Z,99318.78
2023-05-20T10:09:27.111Z,99316.16
2023-05-20T10:12:21.385Z,99314.34
2023-05-20T10:15:20.423Z,99313.38
2023-05-20T10:18:29.488Z,99314.25
2023-05-20T10:20:56.195Z,99307.97
2023-05-20T10:23:23.785Z,99283.91
2023-05-20T10:25:54.701Z,99297.25
2023-05-20T10:28:38.093Z,99299.78
2023-05-20T10:31:21.684Z,99297.13
2023-05-20T10:33:51.844Z,99295.22
2023-05-20T10:36:27.949Z,99304.03
2023-05-20T10:38:56.641Z,99295.22
2023-05-20T10:41:27.343Z,99296.81
2023-05-20T10:44:05.678Z,99298.59
2023-05-20T10:46:48.319Z,99294.16
2023-05-20T10:49:24.054Z,99294.91
2023-05-20T10:51:52.046Z,99293.94
2023-05-20T10:54:18.769Z,99285.97
2023-05-20T10:56:54.683Z,99284.19
2023-05-20T10:59:22.223Z,99283.22
2023-05-20T11:01:51.934Z,99268.69
2023-05-20T11:04:20.059Z,99278.63
2023-05-20T11:06:57.074Z,99278.63
2023-05-20T11:09:23.850Z,99271.75
2023-05-20T11:11:52.297Z,99276.72
2023-05-20T11:14:20.121Z,99202.56
2023-05-20T11:16:47.056Z,99267.69
2023-05-20T11:19:17.264Z,99265.28
2023-05-20T11:21:44.916Z,99256.97
2023-05-20T11:24:12.706Z,99250.06
2023-05-20T11:26:40.439Z,99231.94
2023-05-20T11:29:07.069Z,99228.44
2023-05-20T11:31:33.943Z,99245.25
2023-05-20T11:34:04.100Z,99242.63
2023-05-20T11:36:31.113Z,99240.72
2023-05-20T11:39:01.213Z,99228.00
2023-05-20T11:41:28.268Z,99239.75
2023-05-20T11:43:59.365Z,99235.28
2023-05-20T11:46:27.053Z,99230.84
2023-05-20T11:48:57.534Z,99226.34
2023-05-20T11:51:28.060Z,99224.56
2023-05-20T11:54:01.401Z,99228.06
2023-05-20T11:56:38.667Z,99228.94
2023-05-20T11:59:06.714Z,99227.94
2023-05-20T12:01:37.701Z,99232.41
2023-05-20T12:04:10.614Z,99225.19
2023-05-20T12:06:37.481Z,99229.63
2023-05-20T12:09:08.916Z,99232.19
2023-05-20T12:11:42.269Z,99226.88
2023-05-20T12:14:09.890Z,99223.25
2023-05-20T12:16:38.139Z,99210.22
2023-05-20T12:19:05.927Z,99209.03
2023-05-20T12:21:32.630Z,99185.06
2023-05-20T12:24:01.026Z,99189.31
2023-05-20T12:26:29.181Z,99201.81
2023-05-20T12:28:56.121Z,99199.97
2023-05-20T12:31:22.799Z,99188.41
2023-05-20T12:33:49.432Z,99184.78
2023-05-20T12:36:16.327Z,99181.28
2023-05-20T12:38:43.141Z,99183.84
2023-05-20T12:41:09.682Z,99171.72
2023-05-20T12:43:39.600Z,99174.78
2023-05-20T12:46:06.551Z,99185.41
2023-05-20T12:48:33.425Z,99139.00
2023-05-20T12:51:00.273Z,99171.19
2023-05-20T12:53:26.836Z,99155.47
2023-05-20T12:55:53.727Z,99161.41
2023-05-20T12:58:20.334Z,99149.94
2023-05-20T13:00:46.941Z,99157.91
2023-05-20T13:03:13.748Z,99139.53
2023-05-20T13:05:40.786Z,99136.75
2023-05-20T13:08:08.982Z,99150.91
2023-05-20T13:10:36.252Z,99091.66
2023-05-20T13:13:03.098Z,99142.94
2023-05-20T13:15:29.757Z,99144.63
2023-05-20T13:17:56.556Z,99141.97
2023-05-20T13:20:23.507Z,99140.28
2023-05-20T13:22:50.402Z,99134.00
2023-05-20T13:25:17.754Z,99129.66
2023-05-20T13:27:44.331Z,99132.31
2023-05-20T13:30:11.297Z,99131.44
2023-05-20T13:32:38.007Z,99133.25
2023-05-20T13:35:05.297Z,99124.81
2023-05-20T13:37:31.894Z,99120.56
2023-05-20T13:39:58.675Z,99118.41
2023-05-20T13:42:25.345Z,99125.16
2023-05-20T13:44:51.993Z,99108.41
2023-05-20T13:47:18.574Z,99118.06
2023-05-20T13:49:45.388Z,99113.59
2023-05-20T13:52:12.273Z,99105.25
2023-05-20T13:54:38.868Z,99115.28
2023-05-20T13:57:07.995Z,99110.81
2023-05-20T13:59:35.058Z,99107.31
2023-05-20T14:02:02.251Z,99110.81
2023-05-20T14:04:29.258Z,99103.81
2023-05-20T14:06:56.179Z,99098.63
2023-05-20T14:09:22.937Z,99096.69
2023-05-20T14:11:51.330Z,99092.59
2023-05-20T14:14:18.067Z,99092.34
2023-05-20T14:16:45.120Z,99074.09
2023-05-20T14:19:11.894Z,99085.13
2023-05-20T14:21:38.577Z,99079.69
2023-05-20T14:24:07.009Z,99073.41
2023-05-20T14:26:34.479Z,99071.59
2023-05-20T14:29:01.445Z,99075.13
2023-05-20T14:31:28.112Z,99060.97
2023-05-20T14:33:55.074Z,99075.13
2023-05-20T14:36:21.713Z,99074.38
2023-05-20T14:38:49.521Z,99057.47
2023-05-20T14:41:16.674Z,99068.09
2023-05-20T14:43:43.349Z,99080.53
2023-05-20T14:46:10.486Z,99077.78
2023-05-20T14:48:37.299Z,99075.22
2023-05-20T14:51:04.029Z,99049.38
2023-05-20T14:53:30.961Z,99069.91
2023-05-20T14:55:57.940Z,99057.09
2023-05-20T14:58:24.605Z,99071.59
2023-05-20T15:00:53.396Z,99070.63
2023-05-20T15:03:20.470Z,99067.25
2023-05-20T15:05:47.157Z,99063.00
2023-05-20T15:08:13.929Z,99060.25
2023-05-20T15:10:40.584Z,99062.78
2023-05-20T15:13:07.419Z,99054.69
2023-05-20T15:15:34.329Z,99030.91
2023-05-20T15:18:01.273Z,99049.41
2023-05-20T15:20:27.905Z,99050.25
2023-05-20T15:22:54.780Z,99049.41
2023-05-20T15:25:21.569Z,99047.59
2023-05-20T15:27:48.564Z,99049.25
2023-05-20T15:30:15.596Z,99049.25
2023-05-20T15:32:42.896Z,99049.25
2023-05-20T15:35:09.873Z,99047.47
2023-05-20T15:37:36.575Z,99026.69
2023-05-20T15:40:04.477Z,99034.94
2023-05-20T15:42:31.787Z,99017.03
2023-05-20T15:44:58.369Z,99028.66
2023-05-20T15:47:25.125Z,99023.25
2023-05-20T15:49:51.696Z,99015.28
2023-05-20T15:52:18.340Z,99029.28
2023-05-20T15:54:44.894Z,99016.88
2023-05-20T15:57:11.717Z,99023.84
2023-05-20T15:59:38.375Z,99025.53
2023-05-20T16:02:06.688Z,99029.06
2023-05-20T16:04:33.505Z,99030.75
2023-05-20T16:07:00.198Z,99020.97
2023-05-20T16:09:26.860Z,99016.47
2023-05-20T16:11:53.518Z,99022.66
2023-05-20T16:14:21.315Z,99012.78
2023-05-20T16:16:48.018Z,99018.91
2023-05-20T16:19:14.798Z,99017.97
2023-05-20T16:21:41.412Z,99011.78
2023-05-20T16:24:08.014Z,99015.16
2023-05-20T16:26:34.700Z,99009.13
2023-05-20T16:29:01.565Z,99015.16
2023-05-20T16:31:30.372Z,99010.69
2023-05-20T16:33:57.395Z,99014.22
2023-05-20T16:36:24.353Z,99011.56
2023-05-20T16:38:51.056Z,99013.34
2023-05-20T16:41:17.751Z,99015.91
2023-05-20T16:43:44.295Z,99002.84
2023-05-20T16:46:12.582Z,99001.75
2023-05-20T16:48:39.303Z,99000.94
2023-05-20T16:51:06.207Z,99006.13
2023-05-20T16:53:32.766Z,99005.28
2023-05-20T16:55:59.405Z,98998.16
2023-05-20T16:58:26.164Z,98991.03
2023-05-20T17:00:52.992Z,99000.06
2023-05-20T17:03:21.070Z,98995.63
2023-05-20T17:05:50.006Z,99000.81
2023-05-20T17:08:16.762Z,99006.97
2023-05-20T17:10:43.416Z,99004.41
2023-05-20T17:13:09.992Z,99008.78
2023-05-20T17:15:37.231Z,99020.25
2023-05-20T17:18:04.078Z,99006.97
2023-05-20T17:20:31.174Z,99004.31
2023-05-20T17:22:57.856Z,99009.63
2023-05-20T17:25:24.672Z,99006.97
2023-05-20T17:27:51.519Z,99013.13
2023-05-20T17:30:18.189Z,99012.16
2023-05-20T17:32:44.806Z,98998.41
2023-05-20T17:35:11.484Z,99016.63
2023-05-20T17:37:38.133Z,99000.94
2023-05-20T17:40:08.455Z,98987.38
2023-05-20T17:42:35.013Z,99006.13
2023-05-20T17:45:01.702Z,99005.16
2023-05-20T17:47:28.274Z,99007.94
2023-05-20T17:49:54.809Z,99006.97
2023-05-20T17:52:21.441Z,99020.47
2023-05-20T17:54:48.031Z,99017.00
2023-05-20T17:57:14.636Z,99017.09
2023-05-20T17:59:42.037Z,99014.56
2023-05-20T18:02:09.046Z,98965.59
2023-05-20T18:04:35.771Z,99016.13
2023-05-20T18:07:03.954Z,99022.41
2023-05-20T18:09:31.053Z,99017.97
2023-05-20T18:11:57.759Z,99020.63
2023-05-20T18:14:26.516Z,99018.78
2023-05-20T18:16:57.564Z,99020.63
2023-05-20T18:19:25.356Z,99022.41
2023-05-20T18:21:52.164Z,99002.97
2023-05-20T18:24:20.359Z,99022.41
2023-05-20T18:26:47.532Z,99019.75
2023-05-20T18:29:14.626Z,99007.19
2023-05-20T18:31:43.393Z,98971.88
2023-05-20T18:34:10.618Z,99030.63
2023-05-20T18:36:37.903Z,99033.28
2023-05-20T18:39:04.812Z,99030.63
2023-05-20T18:41:39.549Z,99027.97
2023-05-20T18:44:12.522Z,99034.25
2023-05-20T18:46:41.423Z,99036.16
2023-05-20T18:49:08.348Z,99030.75
2023-05-20T18:51:34.932Z,99040.50
2023-05-20T18:54:01.641Z,99040.63
2023-05-20T18:56:28.563Z,99045.00
2023-05-20T18:58:55.394Z,99039.69
2023-05-20T19:01:22.213Z,99040.63
2023-05-20T19:03:48.864Z,99049.56
2023-05-20T19:06:16.447Z,99038.13
2023-05-20T19:08:43.840Z,99032.81
2023-05-20T19:11:11.010Z,99038.22
2023-05-20T19:13:37.766Z,99047.03
2023-05-20T19:16:04.435Z,99044.38
2023-05-20T19:18:31.228Z,99002.78
2023-05-20T19:20:57.815Z,99051.47
2023-05-20T19:23:24.500Z,99057.78
2023-05-20T19:25:51.239Z,99039.72
2023-05-20T19:28:18.026Z,99048.94
2023-05-20T19:30:44.854Z,99050.78
2023-05-20T19:33:11.945Z,99059.59
2023-05-20T19:35:38.617Z,99057.88
2023-05-20T19:38:05.879Z,99057.06
2023-05-20T19:40:32.707Z,99065.97
2023-05-20T19:42:59.464Z,99059.72
2023-05-20T19:45:26.260Z,99066.81
2023-05-20T19:47:52.877Z,99053.00
2023-05-20T19:50:19.690Z,99066.91
2023-05-20T19:52:46.621Z,99073.16
2023-05-20T19:55:13.426Z,99067.16
2023-05-20T19:57:41.857Z,99069.69
2023-05-20T20:00:11.286Z,99063.53
2023-05-20T20:02:41.435Z,99067.97
2023-05-20T20:05:08.805Z,99074.25
2023-05-20T20:07:35.527Z,99073.41
2023-05-20T20:10:02.326Z,99079.56
2023-05-20T20:12:28.953Z,99074.25
2023-05-20T20:14:56.138Z,99059.88
2023-05-20T20:17:23.708Z,99073.41
2023-05-20T20:19:53.323Z,99075.22
2023-05-20T20:22:20.125Z,99073.41
2023-05-20T20:24:46.823Z,99067.16
2023-05-20T20:27:13.618Z,99070.75
2023-05-20T20:29:41.290Z,99063.75
2023-05-20T20:32:08.995Z,99076.06
2023-05-20T20:34:35.722Z,99069.06
2023-05-20T20:37:18.093Z,99052.50
2023-05-20T20:39:46.723Z,99077.25
2023-05-20T20:42:13.401Z,99069.28
2023-05-20T20:44:42.716Z,99073.75
2023-05-20T20:49:26.901Z,99067.47
2023-05-20T20:51:55.003Z,99079.06
2023-05-20T20:54:21.540Z,99077.25
2023-05-20T20:56:49.930Z,99075.31
2023-05-20T20:59:16.710Z,99079.19
2023-05-20T21:01:44.592Z,99073.75
2023-05-20T21:04:13.596Z,99076.53
2023-05-20T21:06:46.076Z,99081.72
2023-05-20T21:09:13.967Z,99075.59
2023-05-20T21:11:42.243Z,99084.38
2023-05-20T21:14:09.927Z,99081.97
2023-05-20T21:16:36.506Z,99076.66
2023-05-20T21:19:03.428Z,99080.91
2023-05-20T21:21:30.898Z,99086.28
2023-05-20T21:23:57.831Z,99063.22
2023-05-20T21:26:25.620Z,99081.84
2023-05-20T21:28:52.640Z,99084.50
2023-05-20T21:31:19.382Z,99080.03
2023-05-20T21:33:46.118Z,99079.31
2023-05-20T21:36:12.825Z,99086.41
2023-05-20T21:38:39.889Z,99060.59
2023-05-20T21:41:06.772Z,99077.63
2023-05-20T21:43:33.482Z,99079.41
2023-05-20T21:46:00.500Z,99063.31
2023-05-20T21:48:27.112Z,99075.06
2023-05-20T21:50:53.683Z,99071.56
2023-05-20T21:53:20.667Z,99076.03
2023-05-20T21:55:47.202Z,99070.94
2023-05-20T21:58:13.821Z,99069.88
2023-05-20T22:00:40.986Z,99069.03
2023-05-20T22:03:07.851Z,99069.25
2023-05-20T22:05:34.871Z,99070.81
2023-05-20T22:08:01.856Z,99075.31
2023-05-20T22:10:28.422Z,99067.47
2023-05-20T22:12:55.642Z,99060.22
2023-05-20T22:15:22.909Z,99056.84
2023-05-20T22:17:49.625Z,99053.22
2023-05-20T22:22:32.311Z,99063.94
2023-05-20T22:24:59.052Z,99050.66
2023-05-20T22:27:25.591Z,99061.28
2023-05-20T22:29:52.172Z,99054.28
2023-05-20T22:32:18.756Z,99056.94
2023-05-20T22:34:45.379Z,99053.31
2023-05-20T22:37:12.099Z,99020.19
2023-05-20T22:39:38.840Z,99046.31
2023-05-20T22:42:05.796Z,99035.94
2023-05-20T22:44:32.613Z,99037.50
2023-05-20T22:46:59.233Z,99029.81
2023-05-20T22:49:27.789Z,99042.00
2023-05-20T22:51:54.349Z,99030.50
2023-05-20T22:54:21.068Z,99024.38
2023-05-20T22:56:50.048Z,99027.84
2023-05-20T22:59:18.439Z,99024.38
2023-05-20T23:01:45.958Z,99010.81
2023-05-20T23:04:12.730Z,99021.72
2023-05-20T23:06:39.284Z,99000.78
2023-05-20T23:09:06.376Z,99030.63
2023-05-20T23:11:32.901Z,99026.16
2023-05-20T23:14:02.540Z,99021.09
2023-05-20T23:16:29.538Z,99018.44
2023-05-20T23:18:56.496Z,99027.16
2023-05-20T23:21:23.434Z,99024.50
2023-05-20T23:23:50.072Z,99029.91
2023-05-20T23:26:16.580Z,99028.94
2023-05-20T23:28:43.196Z,99028.09
2023-05-20T23:31:09.985Z,99029.91
2023-05-20T23:33:36.739Z,99029.06
2023-05-20T23:36:03.564Z,99025.66
2023-05-20T23:38:30.469Z,99020.59
2023-05-20T23:40:59.736Z,99026.41
2023-05-20T23:43:26.452Z,99028.19
2023-05-20T23:45:53.059Z,99016.97
2023-05-20T23:48:20.683Z,99025.53
2023-05-20T23:50:48.145Z,99028.19
2023-05-20T23:53:14.922Z,99021.31
2023-05-20T23:55:45.107Z,99014.22
2023-05-20T23:58:11.928Z,99024.91
